Time;durP1;ratioP1;P1;durP2;ratioP2;P2;SDS_P1;SDS_P2;PMS_P1;PMS_P2;Temp;Humidity;BMP_temperature;BMP_pressure;BME280_temperature;BME280_humidity;BME280_pressure;Samples;Min_cycle;Max_cycle;Signal;HPM_P1;HPM_P2
2022/08/30 00:01:03;;;;;;;2.42;2.05;;;;;;;28.41;52.63;98915.00;2102463;28;20040;-52
2022/08/30 00:02:05;;;;;;;3.60;2.40;;;;;;;28.41;52.69;98923.19;2093751;28;20132;-55
2022/08/30 00:03:09;;;;;;;6.00;2.58;;;;;;;28.43;52.55;98915.59;2094846;28;20140;-53
2022/08/30 00:04:11;;;;;;;4.30;1.95;;;;;;;28.42;52.63;98919.38;2093867;28;20063;-50
2022/08/30 00:05:15;;;;;;;2.58;2.38;;;;;;;28.46;52.51;98920.53;2099087;28;20059;-54
2022/08/30 00:06:19;;;;;;;3.47;2.10;;;;;;;28.43;52.50;98916.41;2096151;28;20052;-55
2022/08/30 00:07:20;;;;;;;4.05;2.63;;;;;;;28.42;52.72;98917.50;2096741;28;20051;-53
2022/08/30 00:08:24;;;;;;;2.83;2.10;;;;;;;28.43;52.90;98910.13;2093619;27;20784;-52
2022/08/30 00:09:25;;;;;;;2.28;2.00;;;;;;;28.45;52.67;98916.16;2095838;28;20058;-53
2022/08/30 00:10:27;;;;;;;3.50;2.22;;;;;;;28.46;52.73;98910.44;2097203;28;20048;-51
2022/08/30 00:11:29;;;;;;;2.83;1.92;;;;;;;28.45;52.74;98913.44;2097859;28;20056;-51
2022/08/30 00:12:31;;;;;;;3.65;2.20;;;;;;;28.42;52.59;98911.19;2092311;27;20048;-54
2022/08/30 00:13:32;;;;;;;2.70;2.50;;;;;;;28.42;52.83;98911.19;2092430;28;20134;-52
2022/08/30 00:14:34;;;;;;;3.15;2.25;;;;;;;28.44;52.50;98906.31;2099427;28;20066;-53
2022/08/30 00:15:34;;;;;;;2.15;1.95;;;;;;;28.43;52.56;98905.50;2096830;28;20058;-54
2022/08/30 00:16:36;;;;;;;4.03;2.38;;;;;;;28.43;52.53;98907.41;2101590;28;20047;-53
2022/08/30 00:17:37;;;;;;;3.22;2.38;;;;;;;28.44;52.54;98906.31;2099158;28;20494;-52
2022/08/30 00:18:39;;;;;;;5.68;2.30;;;;;;;28.39;52.90;98907.09;2092257;28;20057;-51
2022/08/30 00:19:40;;;;;;;3.72;2.05;;;;;;;28.39;52.54;98903.50;2098353;28;20055;-50
2022/08/30 00:20:42;;;;;;;4.00;2.53;;;;;;;28.41;52.79;98907.63;2101516;28;20530;-54
2022/08/30 00:21:43;;;;;;;3.05;2.20;;;;;;;28.40;52.82;98908.72;2102928;28;20056;-50
2022/08/30 00:22:45;;;;;;;5.25;2.70;;;;;;;28.40;52.77;98908.72;2097448;28;20134;-51
2022/08/30 00:23:47;;;;;;;3.45;2.20;;;;;;;28.43;52.68;98912.88;2094950;28;20043;-50
2022/08/30 00:24:49;;;;;;;2.72;2.53;;;;;;;28.41;52.67;98906.81;2096447;28;20074;-52
2022/08/30 00:25:50;;;;;;;2.42;2.20;;;;;;;28.41;52.81;98898.63;2099675;28;20804;-52
2022/08/30 00:26:52;;;;;;;1.80;1.70;;;;;;;28.42;52.57;98906.59;2100873;28;20130;-54
2022/08/30 00:27:53;;;;;;;2.67;2.10;;;;;;;28.42;53.00;98906.59;2096904;28;20059;-52
2022/08/30 00:28:55;;;;;;;2.83;2.17;;;;;;;28.39;52.87;98898.06;2101637;28;20040;-55
2022/08/30 00:29:56;;;;;;;2.55;1.80;;;;;;;28.42;52.46;98905.75;2096850;28;20047;-53
2022/08/30 00:30:58;;;;;;;4.72;2.05;;;;;;;28.41;52.70;98907.63;2094525;28;20421;-55
2022/08/30 00:32:01;;;;;;;2.30;2.10;;;;;;;28.41;52.65;98902.16;2104440;28;20141;-52
2022/08/30 00:33:03;;;;;;;2.75;2.33;;;;;;;28.41;52.50;98901.34;2100662;28;20040;-54
2022/08/30 00:34:04;;;;;;;3.05;2.00;;;;;;;28.41;52.84;98901.34;2103662;27;20397;-52
2022/08/30 00:35:08;;;;;;;2.88;2.10;;;;;;;28.41;52.57;98899.44;2100894;28;20070;-55
2022/08/30 00:36:09;;;;;;;2.30;2.10;;;;;;;28.41;53.05;98895.91;2096551;28;20059;-53
2022/08/30 00:37:10;;;;;;;2.78;2.25;;;;;;;28.38;52.85;98897.25;2102690;28;20420;-51
2022/08/30 00:38:12;;;;;;;2.85;2.65;;;;;;;28.39;52.83;98895.31;2097909;28;20062;-51
2022/08/30 00:39:15;;;;;;;3.17;2.08;;;;;;;28.41;52.65;98902.16;2093687;28;20052;-55
2022/08/30 00:40:19;;;;;;;6.78;2.92;;;;;;;28.42;52.79;98898.41;2098272;28;20056;-53
2022/08/30 00:41:21;;;;;;;3.25;2.38;;;;;;;28.39;52.75;98898.06;2097259;27;20052;-52
2022/08/30 00:42:23;;;;;;;7.90;2.40;;;;;;;28.37;53.16;98892.06;2098941;28;20048;-54
2022/08/30 00:43:28;;;;;;;4.43;1.95;;;;;;;28.39;53.01;98895.31;2096963;28;20481;-54
2022/08/30 00:44:28;;;;;;;4.13;2.50;;;;;;;28.38;52.92;98889.06;2103147;28;20048;-53
2022/08/30 00:45:33;;;;;;;3.17;2.75;;;;;;;28.39;52.94;98887.16;2098710;27;20500;-54
2022/08/30 00:46:34;;;;;;;2.53;2.30;;;;;;;28.37;53.06;98890.16;2097941;28;20055;-54
2022/08/30 00:47:36;;;;;;;3.67;2.08;;;;;;;28.39;52.90;98890.72;2098342;28;20390;-53
2022/08/30 00:48:42;;;;;;;2.40;2.10;;;;;;;28.39;52.99;98887.16;2094848;28;20052;-55
2022/08/30 00:49:47;;;;;;;2.78;2.17;;;;;;;28.38;52.71;98886.31;2098001;28;20624;-54
2022/08/30 00:50:54;;;;;;;2.78;2.42;;;;;;;28.37;52.74;98886.59;2095568;27;20043;-53
2022/08/30 00:51:55;;;;;;;2.30;2.00;;;;;;;28.35;52.99;98888.75;2098002;28;20054;-54
2022/08/30 00:53:01;;;;;;;2.30;2.10;;;;;;;28.38;52.59;98890.97;2102543;28;20047;-52
2022/08/30 00:54:04;;;;;;;10.60;3.00;;;;;;;28.38;53.09;98891.78;2098566;28;20051;-52
2022/08/30 00:55:09;;;;;;;2.58;2.38;;;;;;;28.37;52.79;98890.16;2097311;28;20047;-52
2022/08/30 00:56:11;;;;;;;3.72;2.58;;;;;;;28.36;53.10;98893.13;2096284;28;21180;-52
2022/08/30 00:57:13;;;;;;;3.20;2.28;;;;;;;28.34;53.14;98896.13;2096451;28;20043;-52
2022/08/30 00:58:20;;;;;;;3.17;2.45;;;;;;;28.35;53.00;98891.50;2095634;28;20536;-53
2022/08/30 00:59:23;;;;;;;3.88;2.75;;;;;;;28.33;53.15;98904.56;2095886;28;20035;-52
2022/08/30 01:00:25;;;;;;;4.47;3.15;;;;;;;28.33;53.42;98893.66;2098193;28;20052;-53
2022/08/30 01:01:27;;;;;;;3.45;2.47;;;;;;;28.33;53.25;98893.66;2094289;28;21343;-53
2022/08/30 01:02:32;;;;;;;2.97;2.40;;;;;;;28.28;53.49;98891.72;2095226;28;20056;-51
2022/08/30 01:03:34;;;;;;;2.58;2.38;;;;;;;28.32;53.42;98886.56;2097016;28;20103;-54
2022/08/30 01:04:39;;;;;;;3.45;3.05;;;;;;;28.34;53.32;98895.31;2100741;28;20510;-52
2022/08/30 01:05:41;;;;;;;2.70;2.40;;;;;;;28.32;53.35;98889.28;2096664;28;20058;-51
2022/08/30 01:06:43;;;;;;;3.72;2.40;;;;;;;28.31;53.30;98885.75;2098354;28;20529;-52
2022/08/30 01:07:44;;;;;;;2.60;2.13;;;;;;;28.32;53.54;98889.28;2095606;27;20055;-54
2022/08/30 01:08:47;;;;;;;2.65;2.45;;;;;;;28.33;53.44;98893.66;2099463;28;20078;-53
2022/08/30 01:09:48;;;;;;;3.20;2.92;;;;;;;28.29;53.48;98894.19;2098837;28;21167;-54
2022/08/30 01:10:53;;;;;;;4.15;2.40;;;;;;;28.27;53.47;98896.34;2101807;27;20043;-54
2022/08/30 01:11:55;;;;;;;3.22;2.40;;;;;;;28.27;53.82;98893.59;2100487;28;20040;-52
2022/08/30 01:12:57;;;;;;;3.53;2.88;;;;;;;28.30;53.57;98900.44;2100565;28;20044;-54
2022/08/30 01:13:59;;;;;;;3.83;2.25;;;;;;;28.28;53.67;98892.53;2097826;28;20051;-54
2022/08/30 01:15:00;;;;;;;3.30;2.60;;;;;;;28.28;53.57;98894.47;2097427;28;20040;-52
2022/08/30 01:16:03;;;;;;;3.08;2.55;;;;;;;28.27;53.58;98887.34;2103447;28;20050;-52
2022/08/30 01:17:06;;;;;;;3.10;2.42;;;;;;;28.28;53.79;98891.72;2095115;28;20684;-52
2022/08/30 01:18:07;;;;;;;3.35;2.33;;;;;;;28.28;53.45;98898.00;2095241;28;20052;-54
2022/08/30 01:19:18;;;;;;;2.78;2.50;;;;;;;28.27;53.53;98893.59;2095547;28;20050;-53
2022/08/30 01:20:26;;;;;;;2.70;2.10;;;;;;;28.25;53.65;98887.63;2098150;28;20615;-51
2022/08/30 01:21:34;;;;;;;3.55;2.45;;;;;;;28.25;53.83;98889.50;2096842;28;20131;-52
2022/08/30 01:22:41;;;;;;;3.28;2.45;;;;;;;28.24;53.80;98888.69;2100327;28;20031;-52
2022/08/30 01:23:48;;;;;;;2.85;2.47;;;;;;;28.24;53.83;98885.94;2096387;28;20054;-52
2022/08/30 01:24:51;;;;;;;3.15;2.42;;;;;;;28.23;53.88;98878.88;2096559;27;20053;-53
2022/08/30 01:25:54;;;;;;;5.85;2.58;;;;;;;28.25;53.72;98887.63;2102394;28;20047;-54
2022/08/30 01:26:55;;;;;;;2.40;2.30;;;;;;;28.27;53.74;98879.16;2102033;28;20661;-53
2022/08/30 01:28:02;;;;;;;3.60;2.67;;;;;;;28.27;53.52;98882.69;2095844;27;20071;-55
2022/08/30 01:29:07;;;;;;;3.60;2.58;;;;;;;28.23;53.83;98878.03;2093226;28;20059;-52
2022/08/30 01:30:09;;;;;;;2.50;2.30;;;;;;;28.25;53.98;98886.75;2096259;28;20051;-54
2022/08/30 01:31:11;;;;;;;2.15;1.88;;;;;;;28.26;53.76;98889.25;2098994;28;20067;-53
2022/08/30 01:32:17;;;;;;;3.13;2.67;;;;;;;28.24;53.62;98885.94;2097214;28;20048;-52
2022/08/30 01:33:19;;;;;;;4.63;2.55;;;;;;;28.21;53.86;98883.75;2100876;28;20497;-51
2022/08/30 01:34:20;;;;;;;2.80;2.58;;;;;;;28.22;54.04;98888.13;2095795;28;20503;-52
2022/08/30 01:35:22;;;;;;;3.80;2.38;;;;;;;28.26;53.87;98886.53;2097137;27;20044;-53
2022/08/30 01:36:23;;;;;;;4.40;2.88;;;;;;;28.26;53.57;98889.25;2100485;28;20043;-54
2022/08/30 01:37:30;;;;;;;2.63;2.42;;;;;;;28.28;53.58;98887.09;2100466;28;20082;-50
2022/08/30 01:38:35;;;;;;;2.58;2.03;;;;;;;28.24;53.48;98883.22;2102905;28;20048;-53
2022/08/30 01:39:38;;;;;;;5.00;2.47;;;;;;;28.24;53.34;98887.88;2101467;28;20048;-53
2022/08/30 01:40:40;;;;;;;2.70;2.50;;;;;;;28.26;53.41;98883.78;2104127;28;20425;-50
2022/08/30 01:41:42;;;;;;;4.10;2.55;;;;;;;28.26;53.42;98885.72;2102177;28;20425;-48
2022/08/30 01:42:44;;;;;;;2.50;2.30;;;;;;;28.27;53.45;98884.59;2098825;28;20044;-53
2022/08/30 01:43:45;;;;;;;4.40;2.65;;;;;;;28.25;53.40;98879.44;2096761;28;20498;-52
2022/08/30 01:44:47;;;;;;;3.00;2.10;;;;;;;28.28;53.38;98883.53;2094110;28;20055;-54
2022/08/30 01:45:48;;;;;;;3.00;2.30;;;;;;;28.26;53.44;98880.25;2097811;28;20163;-53
2022/08/30 01:46:50;;;;;;;3.92;2.67;;;;;;;28.25;53.48;98882.16;2100207;28;20931;-52
2022/08/30 01:47:50;;;;;;;3.25;2.17;;;;;;;28.26;53.43;98878.34;2104620;27;20047;-51
2022/08/30 01:48:54;;;;;;;2.72;2.50;;;;;;;28.26;52.99;98877.53;2101782;27;20528;-54
2022/08/30 01:49:57;;;;;;;2.97;2.78;;;;;;;28.26;53.55;98881.06;2102899;28;20064;-53
2022/08/30 01:50:59;;;;;;;3.63;2.42;;;;;;;28.27;53.16;98882.69;2102572;27;20047;-52
2022/08/30 01:52:00;;;;;;;3.72;2.20;;;;;;;28.27;53.23;98879.97;2098406;28;20048;-54
2022/08/30 01:53:01;;;;;;;5.03;2.40;;;;;;;28.26;53.21;98874.78;2100681;27;20050;-53
2022/08/30 01:54:03;;;;;;;3.20;2.90;;;;;;;28.26;53.38;98877.53;2096360;28;20048;-53
2022/08/30 01:55:08;;;;;;;6.22;2.65;;;;;;;28.25;53.34;98875.84;2083588;27;20067;-54
2022/08/30 01:56:10;;;;;;;3.45;2.40;;;;;;;28.23;53.28;98878.88;2100640;28;20048;-52
2022/08/30 01:57:17;;;;;;;2.17;1.83;;;;;;;28.23;53.25;98878.88;2104028;28;21048;-50
2022/08/30 01:58:18;;;;;;;3.10;2.40;;;;;;;28.23;53.34;98878.03;2101138;28;20854;-53
2022/08/30 01:59:20;;;;;;;4.53;2.33;;;;;;;28.23;53.63;98884.31;2096219;27;20055;-50
2022/08/30 02:00:21;;;;;;;7.70;2.42;;;;;;;28.26;53.24;98881.06;2098647;28;20643;-54
2022/08/30 02:01:26;;;;;;;3.28;2.47;;;;;;;28.26;53.26;98883.78;2097253;28;20155;-51
2022/08/30 02:02:28;;;;;;;6.03;2.92;;;;;;;28.26;53.39;98878.34;2101186;28;20059;-53
2022/08/30 02:03:33;;;;;;;3.08;1.90;;;;;;;28.26;53.29;98885.72;2099029;27;20429;-53
2022/08/30 02:04:35;;;;;;;3.38;2.33;;;;;;;28.26;53.27;98883.78;2098214;28;20454;-51
2022/08/30 02:05:37;;;;;;;2.75;2.20;;;;;;;28.23;53.44;98884.31;2093600;28;20058;-51
2022/08/30 02:06:38;;;;;;;3.70;2.70;;;;;;;28.22;53.61;98884.56;2100378;28;20105;-51
2022/08/30 02:07:40;;;;;;;3.75;2.17;;;;;;;28.22;53.65;98881.84;2101054;28;20505;-54
2022/08/30 02:08:42;;;;;;;2.83;2.38;;;;;;;28.22;53.53;98882.69;2101173;27;20055;-54
2022/08/30 02:09:44;;;;;;;2.85;2.50;;;;;;;28.23;53.54;98883.50;2101803;28;20521;-53
2022/08/30 02:10:47;;;;;;;4.07;2.40;;;;;;;28.23;53.42;98873.41;2099411;28;20047;-50
2022/08/30 02:11:48;;;;;;;2.45;2.25;;;;;;;28.24;53.27;98885.94;2101248;28;20052;-50
2022/08/30 02:12:50;;;;;;;3.15;2.92;;;;;;;28.23;53.50;98883.50;2102935;27;20080;-53
2022/08/30 02:13:50;;;;;;;4.47;2.65;;;;;;;28.24;53.65;98885.13;2097384;28;20059;-55
2022/08/30 02:14:52;;;;;;;2.25;1.92;;;;;;;28.25;53.43;98881.31;2095528;27;20738;-54
2022/08/30 02:15:53;;;;;;;3.22;2.55;;;;;;;28.26;53.43;98888.44;2098130;28;20536;-53
2022/08/30 02:16:55;;;;;;;2.75;2.20;;;;;;;28.21;53.64;98886.47;2099176;28;20044;-54
2022/08/30 02:17:56;;;;;;;2.00;1.80;;;;;;;28.22;53.49;98884.56;2097906;28;20051;-53
2022/08/30 02:18:58;;;;;;;3.10;2.03;;;;;;;28.22;53.83;98881.84;2098785;28;20576;-52
2022/08/30 02:19:58;;;;;;;4.50;2.05;;;;;;;28.22;53.50;98879.09;2098694;28;20056;-52
2022/08/30 02:21:01;;;;;;;4.20;2.58;;;;;;;28.21;53.61;98883.75;2099794;28;20047;-52
2022/08/30 02:22:01;;;;;;;3.15;2.85;;;;;;;28.23;53.11;98887.03;2094584;28;20509;-52
2022/08/30 02:23:03;;;;;;;3.97;2.72;;;;;;;28.25;53.19;98887.63;2099777;28;20054;-53
2022/08/30 02:24:04;;;;;;;4.25;2.40;;;;;;;28.24;53.28;98885.94;2099671;27;20615;-53
2022/08/30 02:25:07;;;;;;;3.35;2.30;;;;;;;28.23;53.36;98881.59;2100458;28;20607;-52
2022/08/30 02:26:10;;;;;;;2.55;2.00;;;;;;;28.22;53.37;98882.69;2095719;28;21036;-52
2022/08/30 02:27:12;;;;;;;2.17;2.03;;;;;;;28.23;53.30;98878.03;2100939;27;20052;-53
2022/08/30 02:28:14;;;;;;;4.60;2.30;;;;;;;28.23;53.24;98878.03;2094843;27;20087;-54
2022/08/30 02:29:16;;;;;;;3.50;2.20;;;;;;;28.23;53.16;98878.88;2095203;28;20101;-54
2022/08/30 02:30:17;;;;;;;2.70;2.50;;;;;;;28.22;53.56;98885.41;2099713;28;20056;-54
2022/08/30 02:31:20;;;;;;;2.42;2.15;;;;;;;28.22;53.46;98877.22;2099828;28;20747;-49
2022/08/30 02:32:20;;;;;;;2.50;2.25;;;;;;;28.22;53.31;98877.22;2099964;28;22736;-50
2022/08/30 02:33:22;;;;;;;4.03;2.63;;;;;;;28.22;53.30;98876.38;2099621;27;20065;-51
2022/08/30 02:34:23;;;;;;;3.85;2.38;;;;;;;28.22;53.45;98871.78;2100985;28;20058;-54
2022/08/30 02:35:25;;;;;;;3.38;2.20;;;;;;;28.24;53.23;98877.78;2098333;28;20154;-52
2022/08/30 02:36:26;;;;;;;3.03;2.42;;;;;;;28.24;53.22;98876.94;2096398;28;20055;-51
2022/08/30 02:37:28;;;;;;;3.30;2.65;;;;;;;28.24;53.31;98868.78;2094468;28;20062;-52
2022/08/30 02:38:29;;;;;;;3.78;2.85;;;;;;;28.22;53.28;98871.78;2096502;28;20337;-49
2022/08/30 02:39:30;;;;;;;3.92;2.88;;;;;;;28.22;53.71;98865.47;2105029;28;20055;-54
2022/08/30 02:40:32;;;;;;;2.90;2.47;;;;;;;28.21;53.62;98870.13;2101142;28;20086;-52
2022/08/30 02:41:35;;;;;;;3.50;3.20;;;;;;;28.22;53.41;98869.06;2102265;28;20112;-51
2022/08/30 02:42:36;;;;;;;2.08;1.95;;;;;;;28.23;53.43;98861.69;2097770;28;20051;-54
2022/08/30 02:43:37;;;;;;;4.20;3.03;;;;;;;28.21;53.82;98867.38;2097568;28;20046;-49
2022/08/30 02:44:38;;;;;;;4.45;2.63;;;;;;;28.22;53.87;98865.47;2089261;28;20056;-52
2022/08/30 02:45:40;;;;;;;3.13;2.53;;;;;;;28.19;53.74;98866.81;2095491;28;20058;-54
2022/08/30 02:46:41;;;;;;;3.55;3.20;;;;;;;28.20;53.79;98863.03;2095017;28;20048;-51
2022/08/30 02:47:43;;;;;;;3.40;2.70;;;;;;;28.22;53.47;98868.19;2099128;27;20677;-53
2022/08/30 02:48:44;;;;;;;5.28;2.38;;;;;;;28.21;53.86;98869.28;2098329;28;20048;-52
2022/08/30 02:49:45;;;;;;;5.32;2.38;;;;;;;28.19;53.81;98874.19;2095179;28;20494;-51
2022/08/30 02:50:49;;;;;;;3.53;3.00;;;;;;;28.20;53.83;98873.94;2093280;28;20036;-53
2022/08/30 02:51:51;;;;;;;3.60;2.78;;;;;;;28.21;53.75;98872.03;2104335;28;20048;-51
2022/08/30 02:52:52;;;;;;;2.83;2.17;;;;;;;28.22;53.82;98871.78;2093562;28;20044;-51
2022/08/30 02:53:54;;;;;;;3.47;2.47;;;;;;;28.21;53.76;98870.13;2094946;27;20050;-51
2022/08/30 02:54:55;;;;;;;3.85;2.60;;;;;;;28.21;53.80;98869.28;2095675;28;20052;-52
2022/08/30 02:55:57;;;;;;;3.88;3.10;;;;;;;28.19;53.71;98869.53;2100155;28;20703;-53
2022/08/30 02:57:03;;;;;;;3.10;2.80;;;;;;;28.21;53.86;98877.47;2099806;27;20044;-54
2022/08/30 02:58:05;;;;;;;3.42;2.83;;;;;;;28.15;53.96;98871.16;2096569;28;20048;-52
2022/08/30 02:59:06;;;;;;;2.88;2.67;;;;;;;28.16;54.12;98871.97;2097377;28;20040;-52
2022/08/30 03:00:09;;;;;;;2.65;2.45;;;;;;;28.20;54.06;98873.13;2099321;28;20436;-54
2022/08/30 03:01:12;;;;;;;3.45;3.15;;;;;;;28.20;54.24;98867.66;2090056;27;20036;-51
2022/08/30 03:02:14;;;;;;;2.88;2.53;;;;;;;28.17;54.28;98862.72;2091054;27;20051;-54
2022/08/30 03:03:15;;;;;;;3.08;2.60;;;;;;;28.18;54.17;98862.47;2097620;28;20112;-54
2022/08/30 03:04:17;;;;;;;3.10;2.80;;;;;;;28.18;54.29;98861.63;2100364;28;20846;-53
2022/08/30 03:05:18;;;;;;;3.58;2.63;;;;;;;28.16;54.30;98867.34;2100314;27;20055;-50
2022/08/30 03:06:20;;;;;;;3.25;2.70;;;;;;;28.17;54.19;98862.72;2096994;28;20165;-51
2022/08/30 03:07:21;;;;;;;3.05;2.75;;;;;;;28.17;54.06;98862.72;2096408;27;21001;-51
2022/08/30 03:08:23;;;;;;;3.03;2.58;;;;;;;28.15;54.22;98860.25;2098147;27;20147;-51
2022/08/30 03:09:24;;;;;;;5.38;2.67;;;;;;;28.17;54.11;98862.72;2098155;28;20048;-53
2022/08/30 03:10:27;;;;;;;2.95;2.47;;;;;;;28.14;54.21;98861.34;2100146;28;20521;-50
2022/08/30 03:11:28;;;;;;;3.05;2.75;;;;;;;28.16;54.00;98859.16;2094214;28;20059;-53
2022/08/30 03:12:32;;;;;;;2.97;2.72;;;;;;;28.16;54.06;98861.88;2102591;28;20044;-54
2022/08/30 03:13:33;;;;;;;3.13;2.40;;;;;;;28.17;53.71;98863.56;2098811;28;20116;-54
2022/08/30 03:14:36;;;;;;;2.97;2.35;;;;;;;28.20;54.09;98863.03;2106850;28;20064;-51
2022/08/30 03:15:39;;;;;;;6.43;2.55;;;;;;;28.17;54.08;98860.81;2102765;28;20043;-50
2022/08/30 03:16:40;;;;;;;3.22;2.53;;;;;;;28.17;53.96;98863.56;2101376;28;20570;-51
2022/08/30 03:17:41;;;;;;;5.57;2.42;;;;;;;28.16;54.01;98861.88;2103820;28;20051;-53
2022/08/30 03:18:43;;;;;;;3.42;3.10;;;;;;;28.13;53.98;98859.69;2099991;28;20054;-54
2022/08/30 03:19:44;;;;;;;3.13;2.83;;;;;;;28.12;54.23;98863.50;2098040;28;20048;-54
2022/08/30 03:20:47;;;;;;;4.60;3.13;;;;;;;28.14;54.11;98864.06;2099519;28;20567;-51
2022/08/30 03:21:49;;;;;;;4.70;2.65;;;;;;;28.12;54.17;98863.50;2100999;28;20095;-51
2022/08/30 03:22:51;;;;;;;2.45;2.28;;;;;;;28.13;54.11;98864.31;2096701;28;20052;-53
2022/08/30 03:23:52;;;;;;;4.53;2.65;;;;;;;28.10;54.31;98867.56;2094184;27;20047;-52
2022/08/30 03:24:56;;;;;;;2.80;2.58;;;;;;;28.10;54.20;98862.94;2095397;28;20595;-52
2022/08/30 03:25:57;;;;;;;2.55;2.33;;;;;;;28.10;54.57;98867.56;2098552;28;20047;-51
2022/08/30 03:26:59;;;;;;;4.20;2.05;;;;;;;28.11;54.58;98864.59;2098978;27;20044;-50
2022/08/30 03:28:02;;;;;;;4.53;2.88;;;;;;;28.09;54.43;98861.31;2098415;28;20047;-50
2022/08/30 03:29:04;;;;;;;2.45;2.28;;;;;;;28.08;54.33;98865.09;2094635;28;22766;-54
2022/08/30 03:30:06;;;;;;;2.50;2.33;;;;;;;28.11;54.35;98864.59;2097845;28;20040;-50
2022/08/30 03:31:09;;;;;;;2.60;2.25;;;;;;;28.11;54.57;98859.16;2099031;28;20051;-53
2022/08/30 03:32:10;;;;;;;2.90;2.70;;;;;;;28.10;54.16;98859.41;2094685;28;20603;-52
2022/08/30 03:33:12;;;;;;;3.58;2.95;;;;;;;28.08;54.31;98854.19;2097667;28;20050;-49
2022/08/30 03:34:12;;;;;;;4.30;2.42;;;;;;;28.07;54.11;98861.56;2101971;28;20060;-58
2022/08/30 03:35:16;;;;;;;2.05;1.90;;;;;;;28.11;54.13;98861.88;2102514;28;20130;-53
2022/08/30 03:36:20;;;;;;;6.65;3.55;;;;;;;28.11;54.12;98867.31;2100967;28;20127;-51
2022/08/30 03:37:20;;;;;;;5.80;2.80;;;;;;;28.10;54.32;98868.38;2098654;28;20052;-51
2022/08/30 03:38:23;;;;;;;5.00;2.78;;;;;;;28.11;54.28;98864.59;2099206;28;24700;-54
2022/08/30 03:39:24;;;;;;;2.90;2.60;;;;;;;28.10;54.40;98862.94;2098457;28;20162;-49
2022/08/30 03:40:26;;;;;;;3.05;2.75;;;;;;;28.09;54.46;98869.50;2100761;28;20082;-50
2022/08/30 03:41:27;;;;;;;3.10;2.80;;;;;;;28.05;54.31;98871.91;2097648;27;20059;-52
2022/08/30 03:42:28;;;;;;;2.47;2.28;;;;;;;28.06;54.38;98872.72;2095762;28;20146;-51
2022/08/30 03:43:33;;;;;;;2.80;2.60;;;;;;;28.08;54.46;98867.81;2099136;28;20059;-50
2022/08/30 03:44:33;;;;;;;2.95;2.22;;;;;;;28.04;54.53;98874.91;2098572;28;20130;-51
2022/08/30 03:45:35;;;;;;;4.00;3.58;;;;;;;28.04;54.57;98862.06;2093776;28;20398;-54
2022/08/30 03:46:36;;;;;;;2.60;2.40;;;;;;;28.06;54.45;98868.09;2096145;28;20044;-49
2022/08/30 03:47:39;;;;;;;2.95;2.65;;;;;;;28.05;54.16;98862.88;2100040;28;20094;-52
2022/08/30 03:48:40;;;;;;;2.92;2.63;;;;;;;28.05;54.73;98860.16;2100040;28;20047;-49
2022/08/30 03:49:42;;;;;;;3.55;2.72;;;;;;;28.06;54.45;98867.28;2099722;28;20505;-53
2022/08/30 03:50:42;;;;;;;2.65;2.38;;;;;;;28.06;54.38;98861.84;2096504;28;20059;-48
2022/08/30 03:51:44;;;;;;;3.08;2.80;;;;;;;28.07;54.51;98866.19;2097384;28;20043;-53
2022/08/30 03:52:45;;;;;;;3.55;3.17;;;;;;;28.04;54.45;98862.06;2096874;27;20666;-52
2022/08/30 03:53:47;;;;;;;6.00;3.40;;;;;;;28.04;54.61;98867.53;2098010;28;20159;-51
2022/08/30 03:54:48;;;;;;;2.42;2.22;;;;;;;28.03;54.41;98865.06;2094669;28;20040;-49
2022/08/30 03:55:50;;;;;;;3.10;2.38;;;;;;;28.02;54.76;98860.69;2101376;28;20581;-54
2022/08/30 03:56:51;;;;;;;3.38;2.53;;;;;;;28.05;54.61;98871.06;2099518;28;20048;-51
2022/08/30 03:57:52;;;;;;;2.90;2.58;;;;;;;28.02;54.89;98863.41;2100475;28;20054;-50
2022/08/30 03:58:55;;;;;;;2.88;2.60;;;;;;;28.05;54.83;98865.63;2102157;28;20055;-53
2022/08/30 03:59:57;;;;;;;2.95;2.47;;;;;;;28.04;54.97;98861.25;2096217;28;20731;-53
2022/08/30 04:00:57;;;;;;;3.63;2.40;;;;;;;28.04;54.69;98858.53;2094435;28;20043;-54
2022/08/30 04:01:59;;;;;;;2.72;2.30;;;;;;;28.04;54.96;98864.00;2102178;28;20043;-51
2022/08/30 04:03:00;;;;;;;4.68;2.78;;;;;;;28.02;54.85;98866.97;2101277;28;20517;-52
2022/08/30 04:04:02;;;;;;;3.67;2.75;;;;;;;28.02;54.97;98866.13;2096838;28;20054;-54
2022/08/30 04:05:04;;;;;;;4.22;2.58;;;;;;;28.01;54.92;98870.78;2096344;28;20059;-53
2022/08/30 04:06:06;;;;;;;2.85;2.65;;;;;;;28.03;54.57;98867.81;2099634;28;20041;-51
2022/08/30 04:07:08;;;;;;;2.78;2.45;;;;;;;28.03;54.56;98875.97;2096933;28;20501;-53
2022/08/30 04:08:09;;;;;;;3.05;2.25;;;;;;;28.01;54.56;98875.41;2097788;28;20543;-52
2022/08/30 04:09:10;;;;;;;4.20;2.65;;;;;;;28.03;54.55;98870.53;2095699;28;20052;-51
2022/08/30 04:10:12;;;;;;;4.13;3.10;;;;;;;28.01;54.86;98875.41;2096529;28;20174;-52
2022/08/30 04:11:15;;;;;;;3.00;2.70;;;;;;;28.00;54.90;98874.59;2097059;28;20044;-54
2022/08/30 04:12:17;;;;;;;3.28;2.97;;;;;;;28.00;54.81;98873.75;2098293;28;20044;-51
2022/08/30 04:13:18;;;;;;;3.45;3.05;;;;;;;27.99;54.93;98874.84;2098167;28;20064;-52
2022/08/30 04:14:22;;;;;;;4.60;2.70;;;;;;;28.01;54.78;98886.31;2096288;28;20058;-50
2022/08/30 04:15:23;;;;;;;2.72;2.53;;;;;;;28.02;54.99;98882.50;2097369;28;20640;-53
2022/08/30 04:16:25;;;;;;;3.10;2.80;;;;;;;28.01;54.82;98878.97;2096755;28;20054;-53
2022/08/30 04:17:26;;;;;;;2.88;2.58;;;;;;;28.00;54.73;98879.19;2097929;28;20047;-50
2022/08/30 04:18:28;;;;;;;3.67;2.80;;;;;;;27.99;54.87;98877.56;2097226;28;20047;-54
2022/08/30 04:19:29;;;;;;;4.65;2.90;;;;;;;27.98;54.80;98878.66;2098106;28;20082;-52
2022/08/30 04:20:31;;;;;;;2.53;2.30;;;;;;;27.99;54.87;98874.84;2098533;28;20048;-52
2022/08/30 04:21:32;;;;;;;4.45;2.72;;;;;;;28.02;54.75;98879.78;2099050;28;20708;-51
2022/08/30 04:22:35;;;;;;;2.97;2.78;;;;;;;27.98;54.74;98882.22;2102886;28;21156;-50
2022/08/30 04:23:36;;;;;;;5.03;3.42;;;;;;;28.01;54.67;98880.88;2096830;28;20048;-53
2022/08/30 04:24:40;;;;;;;4.40;3.05;;;;;;;27.99;55.10;98888.47;2098070;28;20441;-51
2022/08/30 04:25:41;;;;;;;3.72;3.00;;;;;;;28.00;54.54;98890.97;2095887;28;20050;-54
2022/08/30 04:26:43;;;;;;;2.30;2.10;;;;;;;28.02;54.78;98888.78;2097131;28;20105;-52
2022/08/30 04:27:45;;;;;;;4.72;2.67;;;;;;;28.00;54.67;98890.09;2096817;28;20062;-53
2022/08/30 04:28:46;;;;;;;3.25;2.95;;;;;;;28.02;54.38;98896.94;2099045;27;20047;-52
2022/08/30 04:29:49;;;;;;;3.30;3.00;;;;;;;28.01;54.34;98897.22;2095956;28;20044;-51
2022/08/30 04:30:50;;;;;;;4.13;3.13;;;;;;;28.01;54.61;98898.03;2097295;28;20044;-52
2022/08/30 04:31:51;;;;;;;3.13;2.42;;;;;;;28.00;54.48;98895.56;2098280;28;20051;-49
2022/08/30 04:32:53;;;;;;;4.20;2.42;;;;;;;27.98;54.49;98903.19;2096545;27;20056;-54
2022/08/30 04:33:54;;;;;;;2.88;2.47;;;;;;;28.00;54.53;98906.47;2097247;27;20059;-54
2022/08/30 04:34:58;;;;;;;2.97;2.75;;;;;;;28.02;54.39;98904.31;2097266;27;20386;-52
2022/08/30 04:36:03;;;;;;;4.47;2.58;;;;;;;28.03;54.54;98919.59;2098550;28;20082;-54
2022/08/30 04:37:05;;;;;;;2.80;2.50;;;;;;;28.01;54.39;98908.13;2099222;28;20040;-52
2022/08/30 04:38:06;;;;;;;2.63;2.28;;;;;;;28.01;54.31;98914.41;2102175;28;20088;-54
2022/08/30 04:39:08;;;;;;;2.55;2.35;;;;;;;28.02;54.45;98920.66;2097443;28;20089;-52
2022/08/30 04:40:09;;;;;;;2.30;2.10;;;;;;;28.01;54.18;98911.69;2097370;28;20040;-52
2022/08/30 04:41:15;;;;;;;3.60;2.30;;;;;;;28.00;54.04;98922.81;2097078;27;20082;-51
2022/08/30 04:42:15;;;;;;;3.15;2.85;;;;;;;27.98;54.48;98925.00;2096337;27;20135;-50
2022/08/30 04:43:17;;;;;;;3.40;2.72;;;;;;;27.94;54.56;98921.13;2098351;28;20055;-51
2022/08/30 04:44:18;;;;;;;3.85;3.40;;;;;;;27.95;54.50;98920.06;2101889;28;20063;-53
2022/08/30 04:45:22;;;;;;;4.25;2.55;;;;;;;27.96;54.58;98921.72;2103436;27;20078;-54
2022/08/30 04:46:23;;;;;;;2.63;2.42;;;;;;;27.97;54.65;98921.47;2103393;28;20055;-53
2022/08/30 04:47:25;;;;;;;2.45;2.25;;;;;;;27.97;54.65;98923.34;2097166;28;21229;-53
2022/08/30 04:48:26;;;;;;;4.25;2.78;;;;;;;27.95;54.65;98925.53;2097036;28;20637;-54
2022/08/30 04:49:28;;;;;;;2.88;2.45;;;;;;;27.96;54.78;98922.53;2097725;28;20055;-51
2022/08/30 04:50:28;;;;;;;2.60;2.40;;;;;;;27.97;54.52;98926.06;2097780;28;20051;-52
2022/08/30 04:51:31;;;;;;;4.45;2.45;;;;;;;27.92;54.60;98926.88;2095227;28;20311;-54
2022/08/30 04:52:32;;;;;;;4.32;2.55;;;;;;;27.93;54.40;98927.69;2098200;28;20062;-52
2022/08/30 04:53:33;;;;;;;2.92;2.70;;;;;;;27.92;54.41;98926.88;2101980;28;20054;-54